グアム の空港の天気 - METARとTAF

グアム国際空港 ( PGUM / GUM ) - グアム ハガニア
飛行場実況気象(Metar)
観測時間10/22 05:24 ChST (10/21 19:24 UTC)
風向・風速南 3m/s
視程2400m
天気現象強い雨 もや
少しの雲 雲底高度 210m
全天の8割程度の雲 雲底高度 670m
全天を覆う雲 雲底高度 1370m
気温24.4℃
湿度94%
気圧1010hPa
METARPGUM 211924Z 18005KT 1 1/2SM +RA BR FEW007 BKN022 OVC045 24/23 A2983 RMK AO2 P0012 T02440233
過去の天気等 Google飛行場航空写真 Wunderground天気予報

過去48時間のMETAR

飛行場予報(TAF)
発表時間: 10/22 04:45 ChST (10/21 18:45 UTC)
予報対象時間: 22日5時 ChST ~ 23日10時 ChST
風向・風速東 5m/s
視程10km以上
天気現象周辺でしゅう雨
全天の4割程度の雲 雲底高度 610m
全天の4割程度の雲 雲底高度 1220m
22日5時 ChST ~ 22日6時 ChST に一時的に
視程3220m
天気現象しゅう雨
全天の8割程度の雲 雲底高度 610m
全天を覆う雲 雲底高度 910m
22日8時 ChST から
風向・風速南東 6m/s
視程10km以上
天気現象周辺でしゅう雨
全天の4割程度の雲 雲底高度 610m
全天の4割程度の雲 雲底高度 1220m
全天の8割程度の雲 雲底高度 3660m
22日10時 ChST ~ 22日14時 ChST に一時的に
視程8050m
天気現象弱いしゅう雨
全天の4割程度の雲 雲底高度 460m
全天の8割程度の雲 雲底高度 760m
全天の8割程度の雲 雲底高度 1220m
PGUM 211845Z 2119/2224 10009KT P6SM VCSH SCT020 SCT040
TEMPO 2119/2120 2SM SHRA BKN020 OVC030
FM212200 14011KT P6SM VCSH SCT020 SCT040 BKN120
TEMPO 2200/2204 5SM -SHRA SCT015 BKN025 BKN040